sensor_id;sensor_type;location;lat;lon;timestamp;temperature;humidity
5176;DHT22;2607;50.934;6.934;2023-04-25T00:01:21;8.10;99.90
5176;DHT22;2607;50.934;6.934;2023-04-25T00:03:49;8.10;99.90
5176;DHT22;2607;50.934;6.934;2023-04-25T00:06:15;8.10;99.90
5176;DHT22;2607;50.934;6.934;2023-04-25T00:08:43;8.10;99.90
5176;DHT22;2607;50.934;6.934;2023-04-25T00:11:08;8.10;99.90
5176;DHT22;2607;50.934;6.934;2023-04-25T00:13:34;8.10;99.90
5176;DHT22;2607;50.934;6.934;2023-04-25T00:15:59;8.10;99.90
5176;DHT22;2607;50.934;6.934;2023-04-25T00:18:25;8.10;99.90
5176;DHT22;2607;50.934;6.934;2023-04-25T00:20:54;8.10;99.90
5176;DHT22;2607;50.934;6.934;2023-04-25T00:23:20;8.10;99.90
5176;DHT22;2607;50.934;6.934;2023-04-25T00:25:46;8.10;99.90
5176;DHT22;2607;50.934;6.934;2023-04-25T00:28:12;8.00;99.90
5176;DHT22;2607;50.934;6.934;2023-04-25T00:30:39;8.00;99.90
5176;DHT22;2607;50.934;6.934;2023-04-25T00:33:05;8.00;99.90
5176;DHT22;2607;50.934;6.934;2023-04-25T00:35:30;7.90;99.90
5176;DHT22;2607;50.934;6.934;2023-04-25T00:37:56;7.90;99.90
5176;DHT22;2607;50.934;6.934;2023-04-25T00:40:21;7.90;99.90
5176;DHT22;2607;50.934;6.934;2023-04-25T00:42:47;7.80;99.90
5176;DHT22;2607;50.934;6.934;2023-04-25T00:45:14;7.80;99.90
5176;DHT22;2607;50.934;6.934;2023-04-25T00:47:43;7.70;99.90
5176;DHT22;2607;50.934;6.934;2023-04-25T00:50:09;7.70;99.90
5176;DHT22;2607;50.934;6.934;2023-04-25T00:52:37;7.70;99.90
5176;DHT22;2607;50.934;6.934;2023-04-25T00:55:03;7.60;99.90
5176;DHT22;2607;50.934;6.934;2023-04-25T00:57:29;7.60;99.90
5176;DHT22;2607;50.934;6.934;2023-04-25T00:59:55;7.60;99.90
5176;DHT22;2607;50.934;6.934;2023-04-25T01:02:20;7.60;99.90
5176;DHT22;2607;50.934;6.934;2023-04-25T01:04:48;7.60;99.90
5176;DHT22;2607;50.934;6.934;2023-04-25T01:07:14;7.50;99.90
5176;DHT22;2607;50.934;6.934;2023-04-25T01:09:41;7.50;99.90
5176;DHT22;2607;50.934;6.934;2023-04-25T01:12:06;7.50;99.90
5176;DHT22;2607;50.934;6.934;2023-04-25T01:14:32;7.50;99.90
5176;DHT22;2607;50.934;6.934;2023-04-25T01:16:58;7.40;99.90
5176;DHT22;2607;50.934;6.934;2023-04-25T01:19:24;7.40;99.90
5176;DHT22;2607;50.934;6.934;2023-04-25T01:21:50;7.40;99.90
5176;DHT22;2607;50.934;6.934;2023-04-25T01:24:16;7.40;99.90
5176;DHT22;2607;50.934;6.934;2023-04-25T01:26:42;7.40;99.90
5176;DHT22;2607;50.934;6.934;2023-04-25T01:29:18;7.40;99.90
5176;DHT22;2607;50.934;6.934;2023-04-25T01:31:44;7.40;99.90
5176;DHT22;2607;50.934;6.934;2023-04-25T01:34:10;7.30;99.90
5176;DHT22;2607;50.934;6.934;2023-04-25T01:36:36;7.30;99.90
5176;DHT22;2607;50.934;6.934;2023-04-25T01:39:02;7.30;99.90
5176;DHT22;2607;50.934;6.934;2023-04-25T01:41:28;7.30;99.90
5176;DHT22;2607;50.934;6.934;2023-04-25T01:43:53;7.30;99.90
5176;DHT22;2607;50.934;6.934;2023-04-25T01:46:19;7.30;99.90
5176;DHT22;2607;50.934;6.934;2023-04-25T01:48:45;7.20;99.90
5176;DHT22;2607;50.934;6.934;2023-04-25T01:51:12;7.20;99.90
5176;DHT22;2607;50.934;6.934;2023-04-25T01:53:38;7.20;99.90
5176;DHT22;2607;50.934;6.934;2023-04-25T01:56:05;7.20;99.90
5176;DHT22;2607;50.934;6.934;2023-04-25T01:58:30;7.20;99.90
5176;DHT22;2607;50.934;6.934;2023-04-25T02:00:56;7.20;99.90
5176;DHT22;2607;50.934;6.934;2023-04-25T02:03:22;7.10;99.90
5176;DHT22;2607;50.934;6.934;2023-04-25T02:05:47;7.10;99.90
5176;DHT22;2607;50.934;6.934;2023-04-25T02:08:13;7.10;99.90
5176;DHT22;2607;50.934;6.934;2023-04-25T02:10:39;7.10;99.90
5176;DHT22;2607;50.934;6.934;2023-04-25T02:13:04;7.10;99.90
5176;DHT22;2607;50.934;6.934;2023-04-25T02:15:30;7.00;99.90
5176;DHT22;2607;50.934;6.934;2023-04-25T02:17:56;7.00;99.90
5176;DHT22;2607;50.934;6.934;2023-04-25T02:20:24;7.00;99.90
5176;DHT22;2607;50.934;6.934;2023-04-25T02:22:50;7.00;99.90
5176;DHT22;2607;50.934;6.934;2023-04-25T02:25:17;7.00;99.90
5176;DHT22;2607;50.934;6.934;2023-04-25T02:27:43;7.00;99.90
5176;DHT22;2607;50.934;6.934;2023-04-25T02:30:08;7.00;99.90
5176;DHT22;2607;50.934;6.934;2023-04-25T02:32:34;7.00;99.90
5176;DHT22;2607;50.934;6.934;2023-04-25T02:35:01;7.00;99.90
5176;DHT22;2607;50.934;6.934;2023-04-25T02:37:29;7.00;99.90
5176;DHT22;2607;50.934;6.934;2023-04-25T02:39:55;7.00;99.90
5176;DHT22;2607;50.934;6.934;2023-04-25T02:42:20;7.00;99.90
5176;DHT22;2607;50.934;6.934;2023-04-25T02:44:46;7.10;99.90
5176;DHT22;2607;50.934;6.934;2023-04-25T02:47:11;7.10;99.90
5176;DHT22;2607;50.934;6.934;2023-04-25T02:49:37;7.10;99.90
5176;DHT22;2607;50.934;6.934;2023-04-25T02:52:02;7.10;99.90
5176;DHT22;2607;50.934;6.934;2023-04-25T02:54:28;7.10;99.90
5176;DHT22;2607;50.934;6.934;2023-04-25T02:56:53;7.10;99.90
5176;DHT22;2607;50.934;6.934;2023-04-25T02:59:19;7.10;99.90
5176;DHT22;2607;50.934;6.934;2023-04-25T03:01:44;7.10;99.90
5176;DHT22;2607;50.934;6.934;2023-04-25T03:04:10;7.10;99.90
5176;DHT22;2607;50.934;6.934;2023-04-25T03:06:36;7.10;99.90
5176;DHT22;2607;50.934;6.934;2023-04-25T03:09:01;7.10;99.90
5176;DHT22;2607;50.934;6.934;2023-04-25T03:11:27;7.10;99.90
5176;DHT22;2607;50.934;6.934;2023-04-25T03:13:52;7.10;99.90
5176;DHT22;2607;50.934;6.934;2023-04-25T03:16:18;7.10;99.90
5176;DHT22;2607;50.934;6.934;2023-04-25T03:18:43;7.10;99.90
5176;DHT22;2607;50.934;6.934;2023-04-25T03:21:09;7.10;99.90
5176;DHT22;2607;50.934;6.934;2023-04-25T03:23:35;7.10;99.90
5176;DHT22;2607;50.934;6.934;2023-04-25T03:26:00;7.20;99.90
5176;DHT22;2607;50.934;6.934;2023-04-25T03:28:26;7.20;99.90
5176;DHT22;2607;50.934;6.934;2023-04-25T03:30:51;7.20;99.90
5176;DHT22;2607;50.934;6.934;2023-04-25T03:33:17;7.20;99.90
5176;DHT22;2607;50.934;6.934;2023-04-25T03:35:42;7.20;99.90
5176;DHT22;2607;50.934;6.934;2023-04-25T03:38:08;7.20;99.90
5176;DHT22;2607;50.934;6.934;2023-04-25T03:40:34;7.20;99.90
5176;DHT22;2607;50.934;6.934;2023-04-25T03:42:59;7.30;99.90
5176;DHT22;2607;50.934;6.934;2023-04-25T03:45:25;7.30;99.90
5176;DHT22;2607;50.934;6.934;2023-04-25T03:47:50;7.30;99.90
5176;DHT22;2607;50.934;6.934;2023-04-25T03:50:16;7.30;99.90
5176;DHT22;2607;50.934;6.934;2023-04-25T03:52:43;7.30;99.90
5176;DHT22;2607;50.934;6.934;2023-04-25T03:55:09;7.30;99.90
5176;DHT22;2607;50.934;6.934;2023-04-25T03:57:35;7.30;99.90
5176;DHT22;2607;50.934;6.934;2023-04-25T04:00:00;7.30;99.90
5176;DHT22;2607;50.934;6.934;2023-04-25T04:02:26;7.30;99.90
5176;DHT22;2607;50.934;6.934;2023-04-25T04:04:52;7.30;99.90
5176;DHT22;2607;50.934;6.934;2023-04-25T04:07:17;7.30;99.90
5176;DHT22;2607;50.934;6.934;2023-04-25T04:09:43;7.30;99.90
5176;DHT22;2607;50.934;6.934;2023-04-25T04:12:08;7.30;99.90
5176;DHT22;2607;50.934;6.934;2023-04-25T04:14:34;7.30;99.90
5176;DHT22;2607;50.934;6.934;2023-04-25T04:17:00;7.30;99.90
5176;DHT22;2607;50.934;6.934;2023-04-25T04:19:25;7.30;99.90
5176;DHT22;2607;50.934;6.934;2023-04-25T04:21:51;7.30;99.90
5176;DHT22;2607;50.934;6.934;2023-04-25T04:24:17;7.30;99.90
5176;DHT22;2607;50.934;6.934;2023-04-25T04:26:42;7.30;99.90
5176;DHT22;2607;50.934;6.934;2023-04-25T04:29:10;7.30;99.90
5176;DHT22;2607;50.934;6.934;2023-04-25T04:31:36;7.40;99.90
5176;DHT22;2607;50.934;6.934;2023-04-25T04:34:02;7.40;99.90
5176;DHT22;2607;50.934;6.934;2023-04-25T04:36:29;7.30;99.90
5176;DHT22;2607;50.934;6.934;2023-04-25T04:38:54;7.30;99.90
5176;DHT22;2607;50.934;6.934;2023-04-25T04:41:21;7.30;99.90
5176;DHT22;2607;50.934;6.934;2023-04-25T04:43:47;7.30;99.90
5176;DHT22;2607;50.934;6.934;2023-04-25T04:46:13;7.30;99.90
5176;DHT22;2607;50.934;6.934;2023-04-25T04:48:38;7.30;99.90
5176;DHT22;2607;50.934;6.934;2023-04-25T04:51:06;7.30;99.90
5176;DHT22;2607;50.934;6.934;2023-04-25T04:53:31;7.30;99.90
5176;DHT22;2607;50.934;6.934;2023-04-25T04:55:57;7.30;99.90
5176;DHT22;2607;50.934;6.934;2023-04-25T04:58:23;7.30;99.90
5176;DHT22;2607;50.934;6.934;2023-04-25T05:00:49;7.30;99.90
5176;DHT22;2607;50.934;6.934;2023-04-25T05:03:14;7.40;99.90
5176;DHT22;2607;50.934;6.934;2023-04-25T05:05:41;7.30;99.90
5176;DHT22;2607;50.934;6.934;2023-04-25T05:08:07;7.40;99.90
5176;DHT22;2607;50.934;6.934;2023-04-25T05:10:33;7.40;99.90
5176;DHT22;2607;50.934;6.934;2023-04-25T05:12:58;7.40;99.90
5176;DHT22;2607;50.934;6.934;2023-04-25T05:15:24;7.40;99.90
5176;DHT22;2607;50.934;6.934;2023-04-25T05:17:50;7.50;99.90
5176;DHT22;2607;50.934;6.934;2023-04-25T05:20:15;7.50;99.90
5176;DHT22;2607;50.934;6.934;2023-04-25T05:22:41;7.50;99.90
5176;DHT22;2607;50.934;6.934;2023-04-25T05:25:08;7.50;99.90
5176;DHT22;2607;50.934;6.934;2023-04-25T05:27:34;7.50;99.90
5176;DHT22;2607;50.934;6.934;2023-04-25T05:29:59;7.60;99.90
5176;DHT22;2607;50.934;6.934;2023-04-25T05:32:25;7.60;99.90
5176;DHT22;2607;50.934;6.934;2023-04-25T05:34:51;7.60;99.90
5176;DHT22;2607;50.934;6.934;2023-04-25T05:37:17;7.60;99.90
5176;DHT22;2607;50.934;6.934;2023-04-25T05:39:42;7.60;99.90
5176;DHT22;2607;50.934;6.934;2023-04-25T05:42:08;7.60;99.90
5176;DHT22;2607;50.934;6.934;2023-04-25T05:44:33;7.60;99.90
5176;DHT22;2607;50.934;6.934;2023-04-25T05:46:59;7.60;99.90
5176;DHT22;2607;50.934;6.934;2023-04-25T05:49:25;7.60;99.90
5176;DHT22;2607;50.934;6.934;2023-04-25T05:51:50;7.60;99.90
5176;DHT22;2607;50.934;6.934;2023-04-25T05:54:16;7.60;99.90
5176;DHT22;2607;50.934;6.934;2023-04-25T05:56:41;7.70;99.90
5176;DHT22;2607;50.934;6.934;2023-04-25T05:59:07;7.70;99.90
5176;DHT22;2607;50.934;6.934;2023-04-25T06:01:32;7.70;99.90
5176;DHT22;2607;50.934;6.934;2023-04-25T06:03:58;7.70;99.90
5176;DHT22;2607;50.934;6.934;2023-04-25T06:06:24;7.70;99.90
5176;DHT22;2607;50.934;6.934;2023-04-25T06:08:49;7.70;99.90
5176;DHT22;2607;50.934;6.934;2023-04-25T06:11:15;7.70;99.90
5176;DHT22;2607;50.934;6.934;2023-04-25T06:13:41;7.70;99.90
5176;DHT22;2607;50.934;6.934;2023-04-25T06:16:06;7.70;99.90
5176;DHT22;2607;50.934;6.934;2023-04-25T06:18:32;7.70;99.90
5176;DHT22;2607;50.934;6.934;2023-04-25T06:20:58;7.80;99.90
5176;DHT22;2607;50.934;6.934;2023-04-25T06:23:23;7.90;99.90
5176;DHT22;2607;50.934;6.934;2023-04-25T06:25:49;7.90;99.90
5176;DHT22;2607;50.934;6.934;2023-04-25T06:28:15;8.00;99.90
5176;DHT22;2607;50.934;6.934;2023-04-25T06:30:40;8.10;99.90
5176;DHT22;2607;50.934;6.934;2023-04-25T06:33:06;8.10;99.90
5176;DHT22;2607;50.934;6.934;2023-04-25T06:35:34;8.10;99.90
5176;DHT22;2607;50.934;6.934;2023-04-25T06:37:59;8.20;99.90
5176;DHT22;2607;50.934;6.934;2023-04-25T06:40:25;8.20;99.90
5176;DHT22;2607;50.934;6.934;2023-04-25T06:42:51;8.20;99.90
5176;DHT22;2607;50.934;6.934;2023-04-25T06:45:16;8.20;99.90
5176;DHT22;2607;50.934;6.934;2023-04-25T06:47:42;8.30;99.90
5176;DHT22;2607;50.934;6.934;2023-04-25T06:50:08;8.30;99.90
5176;DHT22;2607;50.934;6.934;2023-04-25T06:52:34;8.30;99.90
5176;DHT22;2607;50.934;6.934;2023-04-25T06:54:59;8.20;99.90
5176;DHT22;2607;50.934;6.934;2023-04-25T06:57:25;8.20;99.90
5176;DHT22;2607;50.934;6.934;2023-04-25T06:59:51;8.20;99.90
5176;DHT22;2607;50.934;6.934;2023-04-25T07:02:16;8.30;99.90
5176;DHT22;2607;50.934;6.934;2023-04-25T07:04:42;8.30;99.90
5176;DHT22;2607;50.934;6.934;2023-04-25T07:07:08;8.40;99.90
5176;DHT22;2607;50.934;6.934;2023-04-25T07:09:33;8.40;99.90
5176;DHT22;2607;50.934;6.934;2023-04-25T07:12:00;8.50;99.90
5176;DHT22;2607;50.934;6.934;2023-04-25T07:14:27;8.60;99.90
5176;DHT22;2607;50.934;6.934;2023-04-25T07:16:52;8.70;99.90
5176;DHT22;2607;50.934;6.934;2023-04-25T07:19:18;8.80;99.90
5176;DHT22;2607;50.934;6.934;2023-04-25T07:21:43;8.90;99.90
5176;DHT22;2607;50.934;6.934;2023-04-25T07:24:09;8.90;99.90
5176;DHT22;2607;50.934;6.934;2023-04-25T07:26:34;9.00;99.90
5176;DHT22;2607;50.934;6.934;2023-04-25T07:29:00;9.00;99.90
5176;DHT22;2607;50.934;6.934;2023-04-25T07:31:25;8.90;99.90
5176;DHT22;2607;50.934;6.934;2023-04-25T07:33:51;8.90;99.90
5176;DHT22;2607;50.934;6.934;2023-04-25T07:36:17;9.00;99.90
5176;DHT22;2607;50.934;6.934;2023-04-25T07:38:43;9.10;99.90
5176;DHT22;2607;50.934;6.934;2023-04-25T07:41:08;9.10;99.90
5176;DHT22;2607;50.934;6.934;2023-04-25T07:43:34;9.10;99.90
5176;DHT22;2607;50.934;6.934;2023-04-25T07:45:59;9.00;99.90
5176;DHT22;2607;50.934;6.934;2023-04-25T07:48:25;9.00;99.90
5176;DHT22;2607;50.934;6.934;2023-04-25T07:50:50;9.00;99.90
5176;DHT22;2607;50.934;6.934;2023-04-25T07:53:16;9.10;99.90
5176;DHT22;2607;50.934;6.934;2023-04-25T07:55:43;9.20;99.90
5176;DHT22;2607;50.934;6.934;2023-04-25T07:58:09;9.20;99.90
5176;DHT22;2607;50.934;6.934;2023-04-25T08:00:35;9.20;99.90
5176;DHT22;2607;50.934;6.934;2023-04-25T08:03:01;9.30;99.90
5176;DHT22;2607;50.934;6.934;2023-04-25T08:05:28;9.30;99.90
5176;DHT22;2607;50.934;6.934;2023-04-25T08:07:53;9.40;99.90
5176;DHT22;2607;50.934;6.934;2023-04-25T08:10:19;9.40;99.90
5176;DHT22;2607;50.934;6.934;2023-04-25T08:12:44;9.40;99.90
5176;DHT22;2607;50.934;6.934;2023-04-25T08:15:10;9.50;99.90
5176;DHT22;2607;50.934;6.934;2023-04-25T08:17:36;9.70;99.90
5176;DHT22;2607;50.934;6.934;2023-04-25T08:20:02;9.60;99.90
5176;DHT22;2607;50.934;6.934;2023-04-25T08:22:31;9.60;99.90
5176;DHT22;2607;50.934;6.934;2023-04-25T08:24:56;9.50;99.90
5176;DHT22;2607;50.934;6.934;2023-04-25T08:27:22;9.50;99.50
5176;DHT22;2607;50.934;6.934;2023-04-25T08:29:48;9.50;99.40
5176;DHT22;2607;50.934;6.934;2023-04-25T08:32:14;9.50;99.70
5176;DHT22;2607;50.934;6.934;2023-04-25T08:34:40;9.50;99.50
5176;DHT22;2607;50.934;6.934;2023-04-25T08:37:08;9.50;99.80
5176;DHT22;2607;50.934;6.934;2023-04-25T08:39:35;9.50;99.10
5176;DHT22;2607;50.934;6.934;2023-04-25T08:42:05;9.50;99.10
5176;DHT22;2607;50.934;6.934;2023-04-25T08:44:34;9.60;98.00
5176;DHT22;2607;50.934;6.934;2023-04-25T08:47:04;9.60;97.40
5176;DHT22;2607;50.934;6.934;2023-04-25T08:49:32;9.60;97.90
5176;DHT22;2607;50.934;6.934;2023-04-25T08:52:00;9.60;97.80
5176;DHT22;2607;50.934;6.934;2023-04-25T08:54:27;9.70;97.20
5176;DHT22;2607;50.934;6.934;2023-04-25T08:56:54;10.00;94.90
5176;DHT22;2607;50.934;6.934;2023-04-25T08:59:23;9.90;95.30
5176;DHT22;2607;50.934;6.934;2023-04-25T09:01:49;9.90;95.50
5176;DHT22;2607;50.934;6.934;2023-04-25T09:04:15;10.00;94.50
5176;DHT22;2607;50.934;6.934;2023-04-25T09:06:41;10.10;94.20
5176;DHT22;2607;50.934;6.934;2023-04-25T09:09:08;10.00;94.40
5176;DHT22;2607;50.934;6.934;2023-04-25T09:11:36;10.10;94.40
5176;DHT22;2607;50.934;6.934;2023-04-25T09:14:16;10.00;94.80
5176;DHT22;2607;50.934;6.934;2023-04-25T09:16:58;10.00;95.10
5176;DHT22;2607;50.934;6.934;2023-04-25T09:19:31;10.00;94.80
5176;DHT22;2607;50.934;6.934;2023-04-25T09:21:58;10.00;94.50
5176;DHT22;2607;50.934;6.934;2023-04-25T09:24:35;10.00;94.50
5176;DHT22;2607;50.934;6.934;2023-04-25T09:27:09;10.00;94.80
5176;DHT22;2607;50.934;6.934;2023-04-25T09:29:37;9.90;95.30
5176;DHT22;2607;50.934;6.934;2023-04-25T09:32:22;9.90;95.50
5176;DHT22;2607;50.934;6.934;2023-04-25T09:34:53;9.90;94.70
5176;DHT22;2607;50.934;6.934;2023-04-25T09:37:26;9.90;95.00
5176;DHT22;2607;50.934;6.934;2023-04-25T09:39:57;9.90;94.60
5176;DHT22;2607;50.934;6.934;2023-04-25T09:42:25;10.10;93.20
5176;DHT22;2607;50.934;6.934;2023-04-25T09:44:53;10.20;92.60
5176;DHT22;2607;50.934;6.934;2023-04-25T09:47:20;10.10;92.70
5176;DHT22;2607;50.934;6.934;2023-04-25T09:49:48;10.00;93.00
5176;DHT22;2607;50.934;6.934;2023-04-25T09:52:19;10.00;93.50
5176;DHT22;2607;50.934;6.934;2023-04-25T09:54:48;9.90;94.10
5176;DHT22;2607;50.934;6.934;2023-04-25T09:57:18;10.00;93.40
5176;DHT22;2607;50.934;6.934;2023-04-25T09:59:52;10.00;92.90
5176;DHT22;2607;50.934;6.934;2023-04-25T10:02:20;10.10;92.80
5176;DHT22;2607;50.934;6.934;2023-04-25T10:04:53;10.20;93.00
5176;DHT22;2607;50.934;6.934;2023-04-25T10:07:22;10.20;92.40
5176;DHT22;2607;50.934;6.934;2023-04-25T10:09:55;10.20;92.80
5176;DHT22;2607;50.934;6.934;2023-04-25T10:12:22;10.10;92.80
5176;DHT22;2607;50.934;6.934;2023-04-25T10:14:48;10.00;92.90
5176;DHT22;2607;50.934;6.934;2023-04-25T10:17:14;10.00;93.20
5176;DHT22;2607;50.934;6.934;2023-04-25T10:19:39;9.90;93.80
5176;DHT22;2607;50.934;6.934;2023-04-25T10:22:17;9.80;94.20
5176;DHT22;2607;50.934;6.934;2023-04-25T10:24:44;9.70;94.70
5176;DHT22;2607;50.934;6.934;2023-04-25T10:27:12;9.70;95.20
5176;DHT22;2607;50.934;6.934;2023-04-25T10:29:38;9.80;94.90
5176;DHT22;2607;50.934;6.934;2023-04-25T10:32:04;9.90;94.70
5176;DHT22;2607;50.934;6.934;2023-04-25T10:34:43;10.00;93.40
5176;DHT22;2607;50.934;6.934;2023-04-25T10:37:12;10.00;93.60
5176;DHT22;2607;50.934;6.934;2023-04-25T10:39:39;10.00;93.90
5176;DHT22;2607;50.934;6.934;2023-04-25T10:42:05;10.00;93.70
5176;DHT22;2607;50.934;6.934;2023-04-25T10:44:33;10.10;93.20
5176;DHT22;2607;50.934;6.934;2023-04-25T10:47:01;10.30;92.40
5176;DHT22;2607;50.934;6.934;2023-04-25T10:49:41;10.40;92.80
5176;DHT22;2607;50.934;6.934;2023-04-25T10:52:17;10.50;92.40
5176;DHT22;2607;50.934;6.934;2023-04-25T10:54:55;10.60;91.70
5176;DHT22;2607;50.934;6.934;2023-04-25T10:57:40;10.50;92.00
5176;DHT22;2607;50.934;6.934;2023-04-25T11:00:14;10.30;92.20
5176;DHT22;2607;50.934;6.934;2023-04-25T11:02:46;10.20;92.00
5176;DHT22;2607;50.934;6.934;2023-04-25T11:05:23;10.20;92.10
5176;DHT22;2607;50.934;6.934;2023-04-25T11:07:53;10.10;92.40
5176;DHT22;2607;50.934;6.934;2023-04-25T11:10:28;10.10;92.50
5176;DHT22;2607;50.934;6.934;2023-04-25T11:12:55;10.00;93.00
5176;DHT22;2607;50.934;6.934;2023-04-25T11:15:20;10.00;93.20
5176;DHT22;2607;50.934;6.934;2023-04-25T11:17:46;10.00;93.00
5176;DHT22;2607;50.934;6.934;2023-04-25T11:20:13;10.10;92.30
5176;DHT22;2607;50.934;6.934;2023-04-25T11:22:40;10.10;92.00
5176;DHT22;2607;50.934;6.934;2023-04-25T11:25:10;10.10;91.50
5176;DHT22;2607;50.934;6.934;2023-04-25T11:27:52;10.30;88.70
5176;DHT22;2607;50.934;6.934;2023-04-25T11:30:18;10.30;88.40
5176;DHT22;2607;50.934;6.934;2023-04-25T11:32:45;10.30;88.50
5176;DHT22;2607;50.934;6.934;2023-04-25T11:35:11;10.40;88.70
5176;DHT22;2607;50.934;6.934;2023-04-25T11:37:39;10.40;89.50
5176;DHT22;2607;50.934;6.934;2023-04-25T11:40:05;10.50;90.00
5176;DHT22;2607;50.934;6.934;2023-04-25T11:42:37;10.60;90.10
5176;DHT22;2607;50.934;6.934;2023-04-25T11:45:04;10.60;90.00
5176;DHT22;2607;50.934;6.934;2023-04-25T11:47:30;10.70;90.10
5176;DHT22;2607;50.934;6.934;2023-04-25T11:50:03;10.80;90.30
5176;DHT22;2607;50.934;6.934;2023-04-25T11:52:39;10.90;90.40
5176;DHT22;2607;50.934;6.934;2023-04-25T11:55:10;11.00;90.10
5176;DHT22;2607;50.934;6.934;2023-04-25T11:57:37;11.10;88.60
5176;DHT22;2607;50.934;6.934;2023-04-25T12:00:15;11.20;85.50
5176;DHT22;2607;50.934;6.934;2023-04-25T12:02:43;11.30;84.10
5176;DHT22;2607;50.934;6.934;2023-04-25T12:05:11;11.30;83.00
5176;DHT22;2607;50.934;6.934;2023-04-25T12:07:36;11.30;82.30
5176;DHT22;2607;50.934;6.934;2023-04-25T12:10:10;11.40;82.70
5176;DHT22;2607;50.934;6.934;2023-04-25T12:12:37;11.60;82.40
5176;DHT22;2607;50.934;6.934;2023-04-25T12:15:10;11.80;77.90
5176;DHT22;2607;50.934;6.934;2023-04-25T12:17:37;11.80;77.30
5176;DHT22;2607;50.934;6.934;2023-04-25T12:20:10;12.00;76.00
5176;DHT22;2607;50.934;6.934;2023-04-25T12:22:36;12.10;73.50
5176;DHT22;2607;50.934;6.934;2023-04-25T12:25:02;12.30;73.30
5176;DHT22;2607;50.934;6.934;2023-04-25T12:27:31;12.40;71.70
5176;DHT22;2607;50.934;6.934;2023-04-25T12:29:57;12.50;71.20
5176;DHT22;2607;50.934;6.934;2023-04-25T12:32:23;12.60;70.00
5176;DHT22;2607;50.934;6.934;2023-04-25T12:34:49;12.70;72.00
5176;DHT22;2607;50.934;6.934;2023-04-25T12:37:15;12.70;71.80
5176;DHT22;2607;50.934;6.934;2023-04-25T12:39:41;12.90;71.50
5176;DHT22;2607;50.934;6.934;2023-04-25T12:42:06;12.70;72.40
5176;DHT22;2607;50.934;6.934;2023-04-25T12:44:37;12.70;72.90
5176;DHT22;2607;50.934;6.934;2023-04-25T12:47:03;12.60;71.90
5176;DHT22;2607;50.934;6.934;2023-04-25T12:49:29;12.50;72.50
5176;DHT22;2607;50.934;6.934;2023-04-25T12:51:54;12.50;72.60
5176;DHT22;2607;50.934;6.934;2023-04-25T12:54:20;12.50;72.80
5176;DHT22;2607;50.934;6.934;2023-04-25T12:56:45;12.40;73.00
5176;DHT22;2607;50.934;6.934;2023-04-25T12:59:11;12.40;73.40
5176;DHT22;2607;50.934;6.934;2023-04-25T13:01:37;12.40;73.10
5176;DHT22;2607;50.934;6.934;2023-04-25T13:04:02;12.30;73.60
5176;DHT22;2607;50.934;6.934;2023-04-25T13:06:28;12.10;74.30
5176;DHT22;2607;50.934;6.934;2023-04-25T13:08:55;12.10;74.30
5176;DHT22;2607;50.934;6.934;2023-04-25T13:11:21;11.90;74.60
5176;DHT22;2607;50.934;6.934;2023-04-25T13:13:46;11.80;75.70
5176;DHT22;2607;50.934;6.934;2023-04-25T13:16:12;11.80;76.00
5176;DHT22;2607;50.934;6.934;2023-04-25T13:18:41;11.60;76.10
5176;DHT22;2607;50.934;6.934;2023-04-25T13:21:07;11.50;76.70
5176;DHT22;2607;50.934;6.934;2023-04-25T13:23:33;11.40;75.20
5176;DHT22;2607;50.934;6.934;2023-04-25T13:25:59;11.30;75.20
5176;DHT22;2607;50.934;6.934;2023-04-25T13:28:27;11.30;75.50
5176;DHT22;2607;50.934;6.934;2023-04-25T13:30:52;11.20;74.60
5176;DHT22;2607;50.934;6.934;2023-04-25T13:33:19;11.20;73.60
5176;DHT22;2607;50.934;6.934;2023-04-25T13:35:46;11.10;73.10
5176;DHT22;2607;50.934;6.934;2023-04-25T13:38:19;11.10;72.60
5176;DHT22;2607;50.934;6.934;2023-04-25T13:40:45;11.10;72.80
5176;DHT22;2607;50.934;6.934;2023-04-25T13:43:10;11.20;73.00
5176;DHT22;2607;50.934;6.934;2023-04-25T13:45:36;11.20;72.80
5176;DHT22;2607;50.934;6.934;2023-04-25T13:48:02;11.50;71.60
5176;DHT22;2607;50.934;6.934;2023-04-25T13:50:27;11.60;70.10
5176;DHT22;2607;50.934;6.934;2023-04-25T13:52:53;11.80;69.10
5176;DHT22;2607;50.934;6.934;2023-04-25T13:55:19;11.80;69.30
5176;DHT22;2607;50.934;6.934;2023-04-25T13:57:44;11.70;69.20
5176;DHT22;2607;50.934;6.934;2023-04-25T14:00:11;11.60;70.10
5176;DHT22;2607;50.934;6.934;2023-04-25T14:02:37;11.60;69.20
5176;DHT22;2607;50.934;6.934;2023-04-25T14:05:06;11.60;69.40
5176;DHT22;2607;50.934;6.934;2023-04-25T14:07:33;11.60;67.10
5176;DHT22;2607;50.934;6.934;2023-04-25T14:10:00;11.90;66.00
5176;DHT22;2607;50.934;6.934;2023-04-25T14:12:26;11.80;65.80
5176;DHT22;2607;50.934;6.934;2023-04-25T14:14:51;11.80;67.10
5176;DHT22;2607;50.934;6.934;2023-04-25T14:17:18;11.70;67.00
5176;DHT22;2607;50.934;6.934;2023-04-25T14:19:44;11.80;66.80
5176;DHT22;2607;50.934;6.934;2023-04-25T14:22:11;11.90;67.10
5176;DHT22;2607;50.934;6.934;2023-04-25T14:24:37;11.90;68.40
5176;DHT22;2607;50.934;6.934;2023-04-25T14:27:03;12.10;69.60
5176;DHT22;2607;50.934;6.934;2023-04-25T14:29:29;11.90;70.20
5176;DHT22;2607;50.934;6.934;2023-04-25T14:31:55;11.80;71.40
5176;DHT22;2607;50.934;6.934;2023-04-25T14:34:22;11.80;72.20
5176;DHT22;2607;50.934;6.934;2023-04-25T14:36:48;11.90;69.50
5176;DHT22;2607;50.934;6.934;2023-04-25T14:39:13;11.90;68.90
5176;DHT22;2607;50.934;6.934;2023-04-25T14:41:40;11.90;66.60
5176;DHT22;2607;50.934;6.934;2023-04-25T14:44:05;11.90;67.00
5176;DHT22;2607;50.934;6.934;2023-04-25T14:46:31;12.10;66.50
5176;DHT22;2607;50.934;6.934;2023-04-25T14:48:56;12.10;64.20
5176;DHT22;2607;50.934;6.934;2023-04-25T14:51:22;12.10;63.30
5176;DHT22;2607;50.934;6.934;2023-04-25T14:53:48;12.00;64.60
5176;DHT22;2607;50.934;6.934;2023-04-25T14:56:14;12.00;65.80
5176;DHT22;2607;50.934;6.934;2023-04-25T14:58:40;11.90;67.70
5176;DHT22;2607;50.934;6.934;2023-04-25T15:01:05;11.80;69.40
5176;DHT22;2607;50.934;6.934;2023-04-25T15:03:32;11.80;70.90
5176;DHT22;2607;50.934;6.934;2023-04-25T15:05:57;11.80;70.70
5176;DHT22;2607;50.934;6.934;2023-04-25T15:08:23;11.80;72.00
5176;DHT22;2607;50.934;6.934;2023-04-25T15:10:49;11.70;71.30
5176;DHT22;2607;50.934;6.934;2023-04-25T15:13:14;11.90;70.50
5176;DHT22;2607;50.934;6.934;2023-04-25T15:15:40;11.90;69.40
5176;DHT22;2607;50.934;6.934;2023-04-25T15:18:06;11.90;69.30
5176;DHT22;2607;50.934;6.934;2023-04-25T15:20:32;11.70;69.80
5176;DHT22;2607;50.934;6.934;2023-04-25T15:22:57;11.70;70.50
5176;DHT22;2607;50.934;6.934;2023-04-25T15:25:23;11.60;70.90
5176;DHT22;2607;50.934;6.934;2023-04-25T15:27:49;11.50;71.60
5176;DHT22;2607;50.934;6.934;2023-04-25T15:30:17;11.40;71.40
5176;DHT22;2607;50.934;6.934;2023-04-25T15:32:44;11.50;71.60
5176;DHT22;2607;50.934;6.934;2023-04-25T15:35:10;11.40;71.90
5176;DHT22;2607;50.934;6.934;2023-04-25T15:37:36;11.40;71.90
5176;DHT22;2607;50.934;6.934;2023-04-25T15:42:44;11.60;70.90
5176;DHT22;2607;50.934;6.934;2023-04-25T15:45:14;11.70;70.40
5176;DHT22;2607;50.934;6.934;2023-04-25T15:47:40;11.70;71.00
5176;DHT22;2607;50.934;6.934;2023-04-25T15:50:07;11.70;71.70
5176;DHT22;2607;50.934;6.934;2023-04-25T15:52:34;11.70;72.50
5176;DHT22;2607;50.934;6.934;2023-04-25T15:55:01;11.70;73.20
5176;DHT22;2607;50.934;6.934;2023-04-25T15:57:29;11.80;73.60
5176;DHT22;2607;50.934;6.934;2023-04-25T15:59:54;11.80;73.80
5176;DHT22;2607;50.934;6.934;2023-04-25T16:02:20;11.80;73.70
5176;DHT22;2607;50.934;6.934;2023-04-25T16:04:46;11.90;74.00
5176;DHT22;2607;50.934;6.934;2023-04-25T16:07:13;12.00;74.40
5176;DHT22;2607;50.934;6.934;2023-04-25T16:09:39;11.90;74.80
5176;DHT22;2607;50.934;6.934;2023-04-25T16:12:06;11.80;75.50